Colorado Springs, CO (80951)

6:56 PM MDT on September 01, 2014 (GMT -0600)
Carefree Circle S & Windward Circle Village 7 | Change Station
CLOSE
Current Station
Personal Weather Station
Location: Colorado Springs, CO
Elevation: 6509 ft
Nearby Weather Stations

Elev 6509 ft 38.88 °N, 104.74 °W | Updated 4 seconds ago

Scattered Clouds
Scattered Clouds
69.7 °F
Feels Like 69.7 °F
N
0.0
Wind Variable Wind from ENE
Gusts 1.0 mph

Today
High -- | Low -- °F
--% Chance of Precip.
Yesterday
High -- | Low -- °F
Precip. -- in
6:27 AM 7:29 PM
Waxing Crescent, 46% visible
Pressure 29.83 in
Visibility 10.0 miles
Clouds Scattered Clouds 11000 ft
Scattered Clouds 25000 ft
Dew Point 49 °F
Humidity 47%
Rainfall 0.00 in
Snow Depth Not available.
UV 0.0 out of 12
Pollen 9.80 out of 12
Ozone Good
PM2.5 Good
Flu Activity Not available.
METAR KCOS 012354Z 10011KT 10SM SCT110 SCT250 24/07 A3006 RMK AO2 SLP102 T02440072 10256 20211 53001

More Conditions Fewer Conditions

Pressure 29.83 in
Visibility 10.0 miles
Clouds Scattered Clouds 11000 ft
Scattered Clouds 25000 ft
Dew Point 49 °F
Humidity 47%
Rainfall 0.00 in
Snow Depth Not available.
UV 0.0 out of 12
Pollen 9.80 out of 12
Ozone Good
PM2.5 Good
Flu Activity Not available.
METAR KCOS 012354Z 10011KT 10SM SCT110 SCT250 24/07 A3006 RMK AO2 SLP102 T02440072 10256 20211 53001

More Conditions Fewer Conditions

10-Day Weather Forecast

Almanac

Astronomy

Sep. 01, 2014 Rise Set
Actual Time 6:27 AM MDT 7:29 PM MDT
Civil Twilight 6:00 AM MDT 7:56 PM MDT
Nautical Twilight 5:28 AM MDT 8:28 PM MDT
Astronomical Twilight 4:54 AM MDT 9:02 PM MDT
Moon 1:12 PM MDT (9/1) 11:36 PM MDT (9/1)
Length of Visible Light 13h 55m
Length of Day
13h 01m
Tomorrow will be 2m 26s shorter.
Waxing Crescent, 46% of the Moon is Illuminated
Today
Waxing Crescent
Sep 2
First Quarter
Sep 8
Full
Sep 15
Last Quarter
Sep 24
New

Today's Extremes

State Highs State Lows

Community

WunderPhotos

Upload Photos

1,749,475 photos uploaded!

Nearby

Air Quality

  Air Quality AQ Index Pollutant
Yesterday Good
OZONE
Yesterday Good
PM2.5
Current Good
OZONE
Current Good
PM2.5
Monday Good
PM2.5
Monday Good
OZONE
Tuesday Good
PM2.5
Tuesday Good
OZONE

Snow Depth

Station Depth Elevation
Rough And Tumble 1 in 10360 ft
Loveland Basin 3 in 11400 ft
Jones Pass 0 in 10400 ft
Niwot 0 in 9910 ft
Ivanhoe 0 in 10400 ft

Earthquake Activity

City Distance Mag. Time & Date
Trinidad, Colorado 124 miles 2.7 4:20 AM MDT
2014-08-31
Minimum magnitude displayed is 2.5.

Coastal Water Temperatures

Place Temperature
No Stations Reporting

Nearby Weather Stations